createdAt,value
2023-03-26T00:00:09.808Z,7.11
2023-03-26T00:02:21.083Z,7.11
2023-03-26T00:04:13.152Z,7.10
2023-03-26T00:06:09.128Z,7.11
2023-03-26T00:08:00.511Z,7.10
2023-03-26T00:09:52.382Z,7.09
2023-03-26T00:11:46.447Z,7.09
2023-03-26T00:13:38.950Z,7.09
2023-03-26T00:15:30.487Z,7.09
2023-03-26T00:17:22.114Z,7.11
2023-03-26T00:19:14.019Z,7.13
2023-03-26T00:21:06.516Z,7.16
2023-03-26T00:23:01.675Z,7.17
2023-03-26T00:24:53.330Z,7.17
2023-03-26T00:26:45.021Z,7.15
2023-03-26T00:28:38.402Z,7.13
2023-03-26T00:30:30.161Z,7.11
2023-03-26T00:32:22.814Z,7.12
2023-03-26T00:34:18.626Z,7.12
2023-03-26T00:36:14.867Z,7.11
2023-03-26T00:38:06.965Z,7.10
2023-03-26T00:40:04.711Z,7.07
2023-03-26T00:41:56.342Z,7.08
2023-03-26T00:43:49.291Z,7.07
2023-03-26T00:45:41.176Z,7.06
2023-03-26T00:47:33.908Z,7.06
2023-03-26T00:49:30.737Z,7.05
2023-03-26T00:51:22.481Z,7.04
2023-03-26T00:53:15.460Z,7.03
2023-03-26T00:55:07.616Z,7.01
2023-03-26T00:56:59.268Z,6.98
2023-03-26T00:58:51.092Z,6.96
2023-03-26T01:00:53.332Z,6.96
2023-03-26T01:02:45.688Z,6.94
2023-03-26T01:04:37.640Z,6.94
2023-03-26T01:06:36.723Z,6.93
2023-03-26T01:08:34.078Z,6.92
2023-03-26T01:10:25.976Z,6.89
2023-03-26T01:12:22.353Z,6.88
2023-03-26T01:14:21.680Z,6.87
2023-03-26T01:16:27.148Z,6.85
2023-03-26T01:18:21.794Z,6.85
2023-03-26T01:20:19.591Z,6.84
2023-03-26T01:22:19.291Z,6.84
2023-03-26T01:24:10.998Z,6.82
2023-03-26T01:26:12.670Z,6.81
2023-03-26T01:28:08.863Z,6.77
2023-03-26T01:30:21.456Z,6.76
2023-03-26T01:32:24.992Z,6.73
2023-03-26T01:34:37.444Z,6.71
2023-03-26T01:37:17.718Z,6.69
2023-03-26T01:39:19.814Z,6.69
2023-03-26T01:41:21.364Z,6.65
2023-03-26T01:43:30.084Z,6.68
2023-03-26T01:45:26.786Z,6.68
2023-03-26T01:47:18.945Z,6.69
2023-03-26T01:49:13.246Z,6.71
2023-03-26T01:51:06.347Z,6.74
2023-03-26T01:52:58.111Z,6.75
2023-03-26T01:54:50.315Z,6.78
2023-03-26T01:56:57.076Z,6.79
2023-03-26T01:59:01.126Z,6.81
2023-03-26T02:01:16.945Z,6.82
2023-03-26T02:03:18.037Z,6.84
2023-03-26T02:05:17.750Z,6.83
2023-03-26T02:07:15.157Z,6.87
2023-03-26T02:09:10.114Z,6.88
2023-03-26T02:11:11.733Z,6.89
2023-03-26T02:13:03.830Z,6.89
2023-03-26T02:14:55.559Z,6.90
2023-03-26T02:16:48.043Z,6.91
2023-03-26T02:18:41.954Z,6.90
2023-03-26T02:20:33.523Z,6.89
2023-03-26T02:22:30.168Z,6.87
2023-03-26T02:24:21.774Z,6.86
2023-03-26T02:26:17.236Z,6.85
2023-03-26T02:28:09.104Z,6.84
2023-03-26T02:30:01.151Z,6.84
2023-03-26T02:31:52.870Z,6.85
2023-03-26T02:33:44.810Z,6.85
2023-03-26T02:35:36.424Z,6.87
2023-03-26T02:37:30.597Z,6.89
2023-03-26T02:39:22.246Z,6.90
2023-03-26T02:41:14.451Z,6.91
2023-03-26T02:43:06.450Z,6.91
2023-03-26T02:44:58.153Z,6.92
2023-03-26T02:46:49.827Z,6.93
2023-03-26T02:48:41.653Z,6.94
2023-03-26T02:50:36.987Z,6.94
2023-03-26T02:52:28.839Z,6.95
2023-03-26T02:54:20.645Z,6.95
2023-03-26T02:56:12.713Z,6.98
2023-03-26T02:58:04.439Z,6.99
2023-03-26T02:59:55.773Z,6.99
2023-03-26T03:01:47.803Z,7.03
2023-03-26T03:03:39.682Z,7.06
2023-03-26T03:05:32.669Z,7.08
2023-03-26T03:07:26.225Z,7.12
2023-03-26T03:09:17.495Z,7.16
2023-03-26T03:11:12.151Z,7.20
2023-03-26T03:13:06.010Z,7.24
2023-03-26T03:14:57.408Z,7.28
2023-03-26T03:16:49.135Z,7.31
2023-03-26T03:18:40.634Z,7.35
2023-03-26T03:20:35.317Z,7.38
2023-03-26T03:22:27.139Z,7.40
2023-03-26T03:24:18.708Z,7.42
2023-03-26T03:26:16.359Z,7.43
2023-03-26T03:28:08.811Z,7.45
2023-03-26T03:30:00.827Z,7.45
2023-03-26T03:31:52.774Z,7.46
2023-03-26T03:33:46.258Z,7.47
2023-03-26T03:35:38.449Z,7.48
2023-03-26T03:37:30.192Z,7.48
2023-03-26T03:39:21.855Z,7.47
2023-03-26T03:41:13.754Z,7.45
2023-03-26T03:43:05.663Z,7.44
2023-03-26T03:44:57.444Z,7.42
2023-03-26T03:46:54.112Z,7.41
2023-03-26T03:48:50.030Z,7.40
2023-03-26T03:50:42.090Z,7.39
2023-03-26T03:52:33.715Z,7.39
2023-03-26T03:54:25.900Z,7.39
2023-03-26T03:56:19.319Z,7.38
2023-03-26T03:58:12.108Z,7.38
2023-03-26T04:00:06.741Z,7.37
2023-03-26T04:01:58.502Z,7.38
2023-03-26T04:03:50.785Z,7.38
2023-03-26T04:05:43.850Z,7.39
2023-03-26T04:07:35.762Z,7.40
2023-03-26T04:09:27.291Z,7.44
2023-03-26T04:11:19.182Z,7.49
2023-03-26T04:13:12.523Z,7.53
2023-03-26T04:15:04.597Z,7.55
2023-03-26T04:16:56.210Z,7.56
2023-03-26T04:18:48.056Z,7.58
2023-03-26T04:20:46.890Z,7.60
2023-03-26T04:22:39.524Z,7.59
2023-03-26T04:24:38.411Z,7.60
2023-03-26T04:26:31.066Z,7.62
2023-03-26T04:28:34.027Z,7.63
2023-03-26T04:30:25.558Z,7.64
2023-03-26T04:32:26.835Z,7.65
2023-03-26T04:34:24.399Z,7.64
2023-03-26T04:36:16.880Z,7.64
2023-03-26T04:38:10.875Z,7.64
2023-03-26T04:40:10.960Z,7.63
2023-03-26T04:42:02.827Z,7.60
2023-03-26T04:43:55.459Z,7.57
2023-03-26T04:45:48.104Z,7.54
2023-03-26T04:47:40.004Z,7.49
2023-03-26T04:49:31.955Z,7.45
2023-03-26T04:51:27.212Z,7.39
2023-03-26T04:53:21.447Z,7.33
2023-03-26T04:55:21.730Z,7.29
2023-03-26T04:57:24.181Z,7.23
2023-03-26T04:59:19.712Z,7.20
2023-03-26T05:01:11.637Z,7.16
2023-03-26T05:03:03.235Z,7.14
2023-03-26T05:04:57.270Z,7.11
2023-03-26T05:06:49.178Z,7.10
2023-03-26T05:08:42.008Z,7.09
2023-03-26T05:10:33.730Z,7.10
2023-03-26T05:12:25.576Z,7.11
2023-03-26T05:14:18.056Z,7.13
2023-03-26T05:16:11.245Z,7.14
2023-03-26T05:18:02.944Z,7.15
2023-03-26T05:19:54.486Z,7.14
2023-03-26T05:21:46.359Z,7.15
2023-03-26T05:23:38.027Z,7.17
2023-03-26T05:25:29.868Z,7.18
2023-03-26T05:27:21.948Z,7.19
2023-03-26T05:29:14.994Z,7.20
2023-03-26T05:31:08.264Z,7.19
2023-03-26T05:32:59.930Z,7.19
2023-03-26T05:34:51.739Z,7.19
2023-03-26T05:36:44.116Z,7.21
2023-03-26T05:38:36.101Z,7.23
2023-03-26T05:40:27.746Z,7.26
2023-03-26T05:42:19.714Z,7.28
2023-03-26T05:44:11.665Z,7.28
2023-03-26T05:46:03.942Z,7.28
2023-03-26T05:47:56.705Z,7.30
2023-03-26T05:49:48.282Z,7.33
2023-03-26T05:51:39.485Z,7.35
2023-03-26T05:53:32.232Z,7.39
2023-03-26T05:55:23.846Z,7.43
2023-03-26T05:57:15.670Z,7.46
2023-03-26T05:59:08.110Z,7.50
2023-03-26T06:01:11.023Z,7.49
2023-03-26T06:03:02.754Z,7.52
2023-03-26T06:04:54.720Z,7.52
2023-03-26T06:06:46.999Z,7.55
2023-03-26T06:08:39.528Z,7.58
2023-03-26T06:10:31.536Z,7.62
2023-03-26T06:12:23.556Z,7.66
2023-03-26T06:14:15.454Z,7.69
2023-03-26T06:16:09.139Z,7.71
2023-03-26T06:18:18.867Z,7.73
2023-03-26T06:20:11.312Z,7.75
2023-03-26T06:22:03.184Z,7.77
2023-03-26T06:23:55.748Z,7.78
2023-03-26T06:25:47.921Z,7.82
2023-03-26T06:27:39.394Z,7.83
2023-03-26T06:29:31.435Z,7.85
2023-03-26T06:31:23.281Z,7.87
2023-03-26T06:33:15.522Z,7.89
2023-03-26T06:35:07.495Z,7.94
2023-03-26T06:36:59.315Z,7.99
2023-03-26T06:38:50.806Z,8.04
2023-03-26T06:40:42.695Z,8.09
2023-03-26T06:43:07.946Z,8.15
2023-03-26T06:44:46.279Z,8.21
2023-03-26T06:46:39.134Z,8.33
2023-03-26T06:48:31.072Z,8.37
2023-03-26T06:50:22.597Z,8.44
2023-03-26T06:52:14.466Z,8.50
2023-03-26T06:54:06.794Z,8.55
2023-03-26T06:55:58.676Z,8.59
2023-03-26T06:57:51.504Z,8.62
2023-03-26T06:59:43.110Z,8.66
2023-03-26T07:01:35.013Z,8.70
2023-03-26T07:03:26.875Z,8.73
2023-03-26T07:05:18.676Z,8.75
2023-03-26T07:07:10.505Z,8.76
2023-03-26T07:09:02.330Z,8.80
2023-03-26T07:10:54.482Z,8.83
2023-03-26T07:12:46.508Z,8.84
2023-03-26T07:14:38.844Z,8.82
2023-03-26T07:16:30.934Z,8.83
2023-03-26T07:18:22.738Z,8.87
2023-03-26T07:20:26.004Z,8.91
2023-03-26T07:22:23.559Z,8.90
2023-03-26T07:24:16.917Z,8.86
2023-03-26T07:26:33.558Z,8.85
2023-03-26T07:28:43.740Z,8.84
2023-03-26T07:31:27.644Z,8.91
2023-03-26T07:33:36.611Z,9.02
2023-03-26T07:35:41.190Z,9.10
2023-03-26T07:37:47.815Z,9.15
2023-03-26T07:39:57.922Z,9.33
2023-03-26T07:41:49.613Z,9.42
2023-03-26T07:44:12.084Z,9.48
2023-03-26T07:46:04.255Z,9.64
2023-03-26T07:47:57.098Z,9.75
2023-03-26T07:49:49.285Z,9.81
2023-03-26T07:51:41.518Z,9.81
2023-03-26T07:53:33.557Z,9.81
2023-03-26T07:55:25.642Z,9.81
2023-03-26T07:57:39.024Z,9.82
2023-03-26T07:59:53.495Z,9.87
2023-03-26T08:01:51.744Z,9.88
2023-03-26T08:03:51.127Z,9.85
2023-03-26T08:06:06.020Z,9.79
2023-03-26T08:08:08.693Z,9.67
2023-03-26T08:10:22.167Z,9.59
2023-03-26T08:12:43.043Z,9.50
2023-03-26T08:15:01.955Z,9.41
2023-03-26T08:17:02.516Z,9.34
2023-03-26T08:19:08.087Z,9.36
2023-03-26T08:21:08.167Z,9.43
2023-03-26T08:23:09.557Z,9.49
2023-03-26T08:25:27.692Z,9.50
2023-03-26T08:27:38.442Z,9.56
2023-03-26T08:29:45.357Z,9.58
2023-03-26T08:31:40.584Z,9.60
2023-03-26T08:33:32.614Z,9.61
2023-03-26T08:35:25.580Z,9.68
2023-03-26T08:37:17.494Z,9.74
2023-03-26T08:39:09.464Z,9.87
2023-03-26T08:41:14.940Z,10.30
2023-03-26T08:43:22.909Z,10.75
2023-03-26T08:45:44.176Z,11.17
2023-03-26T08:47:48.648Z,11.24
2023-03-26T08:49:51.547Z,11.26
2023-03-26T08:52:24.624Z,11.56
2023-03-26T08:54:25.666Z,12.35
2023-03-26T08:56:33.085Z,12.80
2023-03-26T08:59:02.121Z,12.89
2023-03-26T09:01:12.414Z,13.06
2023-03-26T09:03:32.118Z,13.30
2023-03-26T09:05:50.975Z,13.28
2023-03-26T09:08:24.100Z,12.97
2023-03-26T09:10:30.896Z,12.73
2023-03-26T09:12:47.176Z,12.49
2023-03-26T09:18:17.595Z,11.45
2023-03-26T09:20:33.213Z,11.12
2023-03-26T09:22:45.693Z,10.85
2023-03-26T09:25:22.131Z,10.60
2023-03-26T09:27:47.100Z,10.45
2023-03-26T09:30:14.177Z,10.52
2023-03-26T09:32:27.467Z,10.80
2023-03-26T09:34:28.334Z,11.18
2023-03-26T09:36:27.395Z,11.51
2023-03-26T09:38:40.554Z,11.76
2023-03-26T09:40:38.848Z,11.86
2023-03-26T09:42:42.306Z,11.84
2023-03-26T09:44:51.750Z,11.76
2023-03-26T09:47:14.327Z,11.62
2023-03-26T09:49:22.895Z,11.51
2023-03-26T09:51:41.737Z,11.53
2023-03-26T09:54:06.970Z,11.71
2023-03-26T09:56:16.718Z,11.93
2023-03-26T09:58:11.645Z,12.05
2023-03-26T10:00:41.449Z,12.16
2023-03-26T10:02:45.520Z,12.31
2023-03-26T10:04:45.099Z,12.51
2023-03-26T10:06:58.147Z,12.72
2023-03-26T10:08:58.356Z,12.70
2023-03-26T10:10:54.840Z,12.70
2023-03-26T10:12:51.140Z,12.75
2023-03-26T10:15:11.957Z,12.76
2023-03-26T10:17:05.136Z,12.62
2023-03-26T10:19:18.915Z,12.65
2023-03-26T10:21:48.420Z,13.03
2023-03-26T10:23:58.334Z,13.51
2023-03-26T10:26:08.517Z,13.72
2023-03-26T10:28:08.797Z,13.78
2023-03-26T10:30:20.651Z,13.76
2023-03-26T10:32:44.473Z,13.65
2023-03-26T10:34:51.866Z,13.32
2023-03-26T10:37:05.955Z,13.32
2023-03-26T10:39:42.406Z,13.41
2023-03-26T10:41:59.401Z,13.20
2023-03-26T10:44:01.268Z,13.03
2023-03-26T10:46:26.771Z,12.72
2023-03-26T10:48:33.063Z,12.44
2023-03-26T10:50:50.575Z,12.24
2023-03-26T10:52:59.849Z,12.29
2023-03-26T10:55:27.524Z,12.72
2023-03-26T10:57:36.557Z,13.52
2023-03-26T10:59:29.113Z,14.13
2023-03-26T11:01:32.853Z,14.35
2023-03-26T11:03:41.828Z,14.77
2023-03-26T11:05:47.114Z,15.16
2023-03-26T11:07:51.886Z,15.70
2023-03-26T11:09:54.503Z,16.10
2023-03-26T11:12:26.494Z,16.20
2023-03-26T11:15:02.770Z,16.57
2023-03-26T11:17:02.444Z,16.94
2023-03-26T11:19:05.069Z,16.72
2023-03-26T11:21:19.090Z,16.77
2023-03-26T11:23:27.000Z,17.04
2023-03-26T11:25:41.942Z,17.04
2023-03-26T11:27:51.799Z,16.79
2023-03-26T11:29:56.781Z,16.49
2023-03-26T11:32:15.793Z,16.07
2023-03-26T11:34:19.513Z,15.67
2023-03-26T11:36:16.718Z,15.42
2023-03-26T11:38:17.394Z,15.24
2023-03-26T11:40:19.166Z,15.00
2023-03-26T11:42:14.452Z,14.79
2023-03-26T11:44:18.998Z,14.68
2023-03-26T11:46:13.379Z,14.58
2023-03-26T11:48:30.622Z,14.47
2023-03-26T11:50:27.183Z,14.34
2023-03-26T11:52:18.928Z,14.47
2023-03-26T11:54:12.565Z,14.54
2023-03-26T11:56:18.823Z,14.44
2023-03-26T11:58:23.484Z,14.25
2023-03-26T12:00:21.324Z,14.12
2023-03-26T12:02:12.849Z,13.88
2023-03-26T12:04:08.119Z,13.89
2023-03-26T12:06:02.866Z,13.80
2023-03-26T12:07:59.233Z,13.64
2023-03-26T12:09:54.566Z,13.47
2023-03-26T12:11:48.213Z,13.38
2023-03-26T12:13:43.941Z,13.36
2023-03-26T12:15:43.189Z,13.39
2023-03-26T12:17:37.363Z,13.21
2023-03-26T12:19:36.491Z,13.14
2023-03-26T12:21:28.190Z,13.07
2023-03-26T12:23:51.070Z,13.06
2023-03-26T12:25:43.735Z,12.96
2023-03-26T12:27:38.069Z,12.91
2023-03-26T12:29:34.490Z,13.00
2023-03-26T12:31:26.611Z,13.10
2023-03-26T12:33:35.286Z,13.39
2023-03-26T12:35:30.310Z,13.80
2023-03-26T12:37:37.104Z,13.94
2023-03-26T12:40:10.485Z,14.07
2023-03-26T12:44:44.186Z,14.02
2023-03-26T12:44:52.813Z,13.73
2023-03-26T12:47:54.171Z,13.61
2023-03-26T12:49:03.401Z,13.60
2023-03-26T12:51:19.641Z,13.57
2023-03-26T12:53:26.728Z,13.51
2023-03-26T12:55:37.873Z,13.71
2023-03-26T12:57:39.137Z,13.82
2023-03-26T12:59:46.983Z,13.92
2023-03-26T13:01:45.939Z,14.02
2023-03-26T13:03:50.622Z,14.08
2023-03-26T13:05:59.588Z,14.21
2023-03-26T13:08:05.579Z,14.36
2023-03-26T13:10:12.670Z,14.44
2023-03-26T13:12:07.161Z,14.39
2023-03-26T13:14:07.901Z,14.31
2023-03-26T13:16:04.763Z,14.25
2023-03-26T13:18:18.564Z,14.20
2023-03-26T13:20:27.884Z,14.29
2023-03-26T13:22:51.111Z,14.63
2023-03-26T13:24:54.798Z,14.88
2023-03-26T13:27:08.342Z,15.16
2023-03-26T13:29:23.659Z,15.31
2023-03-26T13:31:15.634Z,15.45
2023-03-26T13:33:28.190Z,15.48
2023-03-26T13:36:00.688Z,15.41
2023-03-26T13:38:26.316Z,15.45
2023-03-26T13:40:50.158Z,15.28
2023-03-26T13:42:57.942Z,14.94
2023-03-26T13:45:04.682Z,14.61
2023-03-26T13:47:05.143Z,14.42
2023-03-26T13:49:13.789Z,14.39
2023-03-26T13:51:12.620Z,14.60
2023-03-26T13:53:19.453Z,14.80
2023-03-26T13:55:37.506Z,14.93
2023-03-26T13:57:35.521Z,14.97
2023-03-26T13:59:31.636Z,14.92
2023-03-26T14:01:34.810Z,14.74
2023-03-26T14:03:57.395Z,14.55
2023-03-26T14:05:52.696Z,14.40
2023-03-26T14:07:50.802Z,14.29
2023-03-26T14:10:10.827Z,14.21
2023-03-26T14:12:21.217Z,14.14
2023-03-26T14:14:18.383Z,14.10
2023-03-26T14:16:42.374Z,14.04
2023-03-26T14:18:43.529Z,13.93
2023-03-26T14:21:10.327Z,13.91
2023-03-26T14:23:35.083Z,13.93
2023-03-26T14:26:08.274Z,13.92
2023-03-26T14:28:48.485Z,13.96
2023-03-26T14:31:00.972Z,13.98
2023-03-26T14:33:12.784Z,13.96
2023-03-26T14:35:15.560Z,13.78
2023-03-26T14:37:18.969Z,13.61
2023-03-26T14:39:37.611Z,13.44
2023-03-26T14:42:02.865Z,13.23
2023-03-26T14:44:21.834Z,13.11
2023-03-26T14:46:39.080Z,13.06
2023-03-26T14:48:42.916Z,13.06
2023-03-26T14:50:42.829Z,13.05
2023-03-26T14:52:43.355Z,13.01
2023-03-26T14:54:39.171Z,12.96
2023-03-26T14:56:53.689Z,12.96
2023-03-26T14:59:21.672Z,12.95
2023-03-26T15:01:26.193Z,13.08
2023-03-26T15:03:40.198Z,13.22
2023-03-26T15:05:57.601Z,13.25
2023-03-26T15:08:09.073Z,13.27
2023-03-26T15:10:25.974Z,13.24
2023-03-26T15:12:29.955Z,13.23
2023-03-26T15:14:40.310Z,13.12
2023-03-26T15:16:45.629Z,13.00
2023-03-26T15:18:59.587Z,12.90
2023-03-26T15:21:06.889Z,12.79
2023-03-26T15:23:49.134Z,12.71
2023-03-26T15:25:51.564Z,12.64
2023-03-26T15:27:52.130Z,12.61
2023-03-26T15:29:58.998Z,12.55
2023-03-26T15:32:15.332Z,12.50
2023-03-26T15:34:13.257Z,12.46
2023-03-26T15:36:37.149Z,12.39
2023-03-26T15:38:43.324Z,12.24
2023-03-26T15:40:58.059Z,12.10
2023-03-26T15:42:58.574Z,11.82
2023-03-26T15:45:22.493Z,11.51
2023-03-26T15:47:29.253Z,11.18
2023-03-26T15:49:33.418Z,10.96
2023-03-26T15:51:46.524Z,10.81
2023-03-26T15:53:48.985Z,10.69
2023-03-26T15:56:04.062Z,10.57
2023-03-26T15:58:23.699Z,10.45
2023-03-26T16:00:26.629Z,10.29
2023-03-26T16:02:27.873Z,10.15
2023-03-26T16:04:50.704Z,10.07
2023-03-26T16:06:57.596Z,10.00
2023-03-26T16:09:03.456Z,9.91
2023-03-26T16:10:59.501Z,9.89
2023-03-26T16:13:14.052Z,9.88
2023-03-26T16:15:25.098Z,9.81
2023-03-26T16:17:20.741Z,9.78
2023-03-26T16:19:23.693Z,9.76
2023-03-26T16:21:31.723Z,9.75
2023-03-26T16:23:28.751Z,9.75
2023-03-26T16:25:34.784Z,9.76
2023-03-26T16:27:29.966Z,9.77
2023-03-26T16:29:26.941Z,9.79
2023-03-26T16:31:38.322Z,9.80
2023-03-26T16:33:44.771Z,9.82
2023-03-26T16:36:06.585Z,9.83
2023-03-26T16:38:15.016Z,9.82
2023-03-26T16:40:22.599Z,9.83
2023-03-26T16:42:35.020Z,9.83
2023-03-26T16:44:41.451Z,9.81
2023-03-26T16:47:08.364Z,9.77
2023-03-26T16:49:06.055Z,9.74
2023-03-26T16:51:09.880Z,9.72
2023-03-26T16:53:21.153Z,9.68
2023-03-26T16:55:15.512Z,9.66
2023-03-26T16:57:29.416Z,9.59
2023-03-26T16:59:43.093Z,9.50
2023-03-26T17:02:13.828Z,9.41
2023-03-26T17:04:12.991Z,9.36
2023-03-26T17:06:31.890Z,9.33
2023-03-26T17:08:35.570Z,9.31
2023-03-26T17:10:36.473Z,9.30
2023-03-26T17:15:06.047Z,9.31
2023-03-26T17:17:19.103Z,9.26
2023-03-26T17:19:22.651Z,9.22
2023-03-26T17:21:19.355Z,9.22
2023-03-26T17:23:28.627Z,9.19
2023-03-26T17:25:25.945Z,9.18
2023-03-26T17:27:28.328Z,9.17
2023-03-26T17:29:43.450Z,9.16
2023-03-26T17:31:56.901Z,9.15
2023-03-26T17:33:49.907Z,9.12
2023-03-26T17:35:47.206Z,9.11
2023-03-26T17:37:47.835Z,9.08
2023-03-26T17:39:39.610Z,9.06
2023-03-26T17:42:15.734Z,9.03
2023-03-26T17:44:42.279Z,9.00
2023-03-26T17:46:39.135Z,8.96
2023-03-26T17:48:35.571Z,8.94
2023-03-26T17:50:52.138Z,8.91
2023-03-26T17:53:02.084Z,8.87
2023-03-26T17:54:56.970Z,8.84
2023-03-26T17:56:50.515Z,8.80
2023-03-26T17:58:48.278Z,8.78
2023-03-26T18:00:45.885Z,8.75
2023-03-26T18:02:44.042Z,8.73
2023-03-26T18:04:40.494Z,8.73
2023-03-26T18:07:00.447Z,8.71
2023-03-26T18:09:12.839Z,8.70
2023-03-26T18:11:15.733Z,8.68
2023-03-26T18:13:07.296Z,8.65
2023-03-26T18:15:20.613Z,8.64
2023-03-26T18:17:12.567Z,8.62
2023-03-26T18:19:17.721Z,8.60
2023-03-26T18:21:15.575Z,8.56
2023-03-26T18:23:23.384Z,8.53
2023-03-26T18:25:27.321Z,8.50
2023-03-26T18:27:21.420Z,8.47
2023-03-26T18:29:23.985Z,8.44
2023-03-26T18:31:23.266Z,8.42
2023-03-26T18:33:16.304Z,8.40
2023-03-26T18:35:18.905Z,8.37
2023-03-26T18:37:34.318Z,8.35
2023-03-26T18:39:25.631Z,8.32
2023-03-26T18:41:32.354Z,8.29
2023-03-26T18:43:34.396Z,8.28
2023-03-26T18:45:35.175Z,8.25
2023-03-26T18:47:28.038Z,8.22
2023-03-26T18:49:20.619Z,8.20
2023-03-26T18:51:12.755Z,8.18
2023-03-26T18:53:07.511Z,8.18
2023-03-26T18:55:02.433Z,8.16
2023-03-26T18:56:59.449Z,8.15
2023-03-26T18:58:52.938Z,8.14
2023-03-26T19:00:44.677Z,8.13
2023-03-26T19:02:37.364Z,8.11
2023-03-26T19:04:33.391Z,8.10
2023-03-26T19:06:26.061Z,8.09
2023-03-26T19:08:18.158Z,8.08
2023-03-26T19:10:16.543Z,8.06
2023-03-26T19:12:16.650Z,8.04
2023-03-26T19:14:18.243Z,8.02
2023-03-26T19:16:22.569Z,7.99
2023-03-26T19:18:19.667Z,7.97
2023-03-26T19:20:17.235Z,7.94
2023-03-26T19:22:11.470Z,7.92
2023-03-26T19:24:04.234Z,7.90
2023-03-26T19:25:56.359Z,7.87
2023-03-26T19:27:50.370Z,7.86
2023-03-26T19:29:43.488Z,7.85
2023-03-26T19:31:36.202Z,7.84
2023-03-26T19:33:34.352Z,7.82
2023-03-26T19:35:26.276Z,7.81
2023-03-26T19:37:19.820Z,7.78
2023-03-26T19:39:12.899Z,7.76
2023-03-26T19:41:05.092Z,7.75
2023-03-26T19:42:59.681Z,7.74
2023-03-26T19:44:52.252Z,7.72
2023-03-26T19:51:25.832Z,7.66
2023-03-26T19:53:25.476Z,7.65
2023-03-26T19:55:24.196Z,7.64
2023-03-26T19:57:16.261Z,7.64
2023-03-26T19:59:08.187Z,7.64
2023-03-26T20:01:00.007Z,7.64
2023-03-26T20:02:51.515Z,7.65
2023-03-26T20:04:43.249Z,7.64
2023-03-26T20:06:43.318Z,7.63
2023-03-26T20:08:36.034Z,7.63
2023-03-26T20:10:28.038Z,7.61
2023-03-26T20:12:19.838Z,7.62
2023-03-26T20:14:21.562Z,7.62
2023-03-26T20:16:33.907Z,7.60
2023-03-26T20:18:25.711Z,7.60
2023-03-26T20:20:19.839Z,7.58
2023-03-26T20:22:16.113Z,7.58
2023-03-26T20:24:17.802Z,7.58
2023-03-26T20:26:15.354Z,7.58
2023-03-26T20:28:13.906Z,7.56
2023-03-26T20:30:07.024Z,7.56
2023-03-26T20:31:59.215Z,7.54
2023-03-26T20:33:56.494Z,7.54
2023-03-26T20:35:48.513Z,7.55
2023-03-26T20:37:40.035Z,7.55
2023-03-26T20:39:31.551Z,7.55
2023-03-26T20:41:24.222Z,7.55
2023-03-26T20:43:18.551Z,7.56
2023-03-26T20:45:20.153Z,7.57
2023-03-26T20:47:12.707Z,7.56
2023-03-26T20:49:06.661Z,7.55
2023-03-26T20:50:58.576Z,7.56
2023-03-26T20:52:50.520Z,7.56
2023-03-26T20:54:42.477Z,7.56
2023-03-26T20:56:37.717Z,7.55
2023-03-26T20:58:31.170Z,7.54
2023-03-26T21:00:24.371Z,7.50
2023-03-26T21:02:16.266Z,7.51
2023-03-26T21:04:07.760Z,7.49
2023-03-26T21:06:01.489Z,7.47
2023-03-26T21:07:58.393Z,7.43
2023-03-26T21:09:50.320Z,7.44
2023-03-26T21:12:02.541Z,7.41
2023-03-26T21:14:02.171Z,7.39
2023-03-26T21:15:54.687Z,7.37
2023-03-26T21:17:46.709Z,7.35
2023-03-26T21:19:39.380Z,7.32
2023-03-26T21:21:49.444Z,7.31
2023-03-26T21:23:46.821Z,7.27
2023-03-26T21:26:02.870Z,7.25
2023-03-26T21:28:14.695Z,7.23
2023-03-26T21:30:30.893Z,7.22
2023-03-26T21:32:23.465Z,7.22
2023-03-26T21:34:15.259Z,7.22
2023-03-26T21:36:07.659Z,7.22
2023-03-26T21:37:59.732Z,7.22
2023-03-26T21:39:51.562Z,7.22
2023-03-26T21:41:47.821Z,7.22
2023-03-26T21:43:39.588Z,7.22
2023-03-26T21:45:31.620Z,7.22
2023-03-26T21:47:23.704Z,7.20
2023-03-26T21:49:17.362Z,7.20
2023-03-26T21:51:14.891Z,7.20
2023-03-26T21:53:06.858Z,7.20
2023-03-26T21:55:00.855Z,7.20
2023-03-26T21:57:29.180Z,7.20
2023-03-26T21:59:51.747Z,7.20
2023-03-26T22:02:00.519Z,7.20
2023-03-26T22:04:16.622Z,7.20
2023-03-26T22:06:16.270Z,7.20
2023-03-26T22:08:21.959Z,7.20
2023-03-26T22:10:13.533Z,7.19
2023-03-26T22:12:05.888Z,7.19
2023-03-26T22:13:57.659Z,7.20
2023-03-26T22:15:49.466Z,7.19
2023-03-26T22:17:42.141Z,7.18
2023-03-26T22:19:34.784Z,7.17
2023-03-26T22:21:26.642Z,7.17
2023-03-26T22:23:18.900Z,7.17
2023-03-26T22:25:10.707Z,7.16
2023-03-26T22:27:02.566Z,7.13
2023-03-26T22:28:54.734Z,7.15
2023-03-26T22:30:46.718Z,7.15
2023-03-26T22:32:39.074Z,7.14
2023-03-26T22:34:31.825Z,7.14
2023-03-26T22:36:25.419Z,7.15
2023-03-26T22:38:17.964Z,7.14
2023-03-26T22:40:16.242Z,7.15
2023-03-26T22:42:08.099Z,7.15
2023-03-26T22:44:09.433Z,7.15
2023-03-26T22:46:06.569Z,7.14
2023-03-26T22:48:03.812Z,7.15
2023-03-26T22:49:57.352Z,7.14
2023-03-26T22:51:50.495Z,7.13
2023-03-26T22:53:41.964Z,7.13
2023-03-26T22:55:33.644Z,7.12
2023-03-26T22:57:25.846Z,7.13
2023-03-26T22:59:17.853Z,7.13
2023-03-26T23:01:17.705Z,7.13
2023-03-26T23:03:09.277Z,7.13
2023-03-26T23:05:01.374Z,7.12
2023-03-26T23:06:54.228Z,7.12
2023-03-26T23:08:46.353Z,7.11
2023-03-26T23:10:42.653Z,7.10
2023-03-26T23:12:34.221Z,7.09
2023-03-26T23:14:26.222Z,7.09
2023-03-26T23:16:18.049Z,7.08
2023-03-26T23:18:09.473Z,7.04
2023-03-26T23:20:06.187Z,7.04
2023-03-26T23:21:57.759Z,7.03
2023-03-26T23:23:51.749Z,7.01
2023-03-26T23:25:45.643Z,7.00
2023-03-26T23:27:37.860Z,6.98
2023-03-26T23:29:30.205Z,6.96
2023-03-26T23:31:21.988Z,6.94
2023-03-26T23:33:13.613Z,6.93
2023-03-26T23:35:05.371Z,6.92
2023-03-26T23:36:58.094Z,6.90
2023-03-26T23:38:51.535Z,6.88
2023-03-26T23:40:44.696Z,6.87
2023-03-26T23:42:49.614Z,6.85
2023-03-26T23:44:41.258Z,6.82
2023-03-26T23:46:35.421Z,6.79
2023-03-26T23:48:29.751Z,6.76
2023-03-26T23:50:21.021Z,6.75
2023-03-26T23:52:12.273Z,6.76
2023-03-26T23:54:05.323Z,6.76
2023-03-26T23:55:59.557Z,6.77
2023-03-26T23:57:51.745Z,6.76
2023-03-26T23:59:43.734Z,6.76
